sensor_id;sensor_type;location;lat;lon;timestamp;temperature;humidity
44851;DHT22;30583;48.714;9.386;2023-04-03T00:01:05;6.70;63.40
44851;DHT22;30583;48.714;9.386;2023-04-03T00:03:32;6.80;63.10
44851;DHT22;30583;48.714;9.386;2023-04-03T00:05:57;6.70;63.20
44851;DHT22;30583;48.714;9.386;2023-04-03T00:08:23;6.70;63.10
44851;DHT22;30583;48.714;9.386;2023-04-03T00:10:49;6.60;63.30
44851;DHT22;30583;48.714;9.386;2023-04-03T00:13:15;6.70;63.10
44851;DHT22;30583;48.714;9.386;2023-04-03T00:15:40;6.70;63.60
44851;DHT22;30583;48.714;9.386;2023-04-03T00:18:06;6.70;63.20
44851;DHT22;30583;48.714;9.386;2023-04-03T00:20:32;6.60;63.00
44851;DHT22;30583;48.714;9.386;2023-04-03T00:22:59;6.60;63.20
44851;DHT22;30583;48.714;9.386;2023-04-03T00:25:25;6.60;63.00
44851;DHT22;30583;48.714;9.386;2023-04-03T00:27:51;6.50;63.40
44851;DHT22;30583;48.714;9.386;2023-04-03T00:30:18;6.50;63.10
44851;DHT22;30583;48.714;9.386;2023-04-03T00:32:44;6.60;63.30
44851;DHT22;30583;48.714;9.386;2023-04-03T00:35:10;6.60;63.80
44851;DHT22;30583;48.714;9.386;2023-04-03T00:37:36;6.70;63.30
44851;DHT22;30583;48.714;9.386;2023-04-03T00:40:02;6.60;63.40
44851;DHT22;30583;48.714;9.386;2023-04-03T00:42:28;6.40;63.70
44851;DHT22;30583;48.714;9.386;2023-04-03T00:47:23;6.50;63.10
44851;DHT22;30583;48.714;9.386;2023-04-03T00:49:50;6.40;63.20
44851;DHT22;30583;48.714;9.386;2023-04-03T00:52:20;6.50;62.90
44851;DHT22;30583;48.714;9.386;2023-04-03T00:54:47;6.40;63.20
44851;DHT22;30583;48.714;9.386;2023-04-03T00:57:14;6.60;63.00
44851;DHT22;30583;48.714;9.386;2023-04-03T00:59:46;6.70;63.50
44851;DHT22;30583;48.714;9.386;2023-04-03T01:02:14;6.70;63.90
44851;DHT22;30583;48.714;9.386;2023-04-03T01:04:42;6.70;63.60
44851;DHT22;30583;48.714;9.386;2023-04-03T01:07:20;6.70;63.00
44851;DHT22;30583;48.714;9.386;2023-04-03T01:09:48;6.60;62.90
44851;DHT22;30583;48.714;9.386;2023-04-03T01:14:48;6.60;63.20
44851;DHT22;30583;48.714;9.386;2023-04-03T01:25:55;6.70;62.40
44851;DHT22;30583;48.714;9.386;2023-04-03T01:28:33;6.80;62.30
44851;DHT22;30583;48.714;9.386;2023-04-03T01:33:47;6.80;62.20
44851;DHT22;30583;48.714;9.386;2023-04-03T01:36:26;6.70;62.10
44851;DHT22;30583;48.714;9.386;2023-04-03T01:38:53;6.60;62.60
44851;DHT22;30583;48.714;9.386;2023-04-03T01:41:20;6.70;62.10
44851;DHT22;30583;48.714;9.386;2023-04-03T01:43:47;6.70;61.80
44851;DHT22;30583;48.714;9.386;2023-04-03T01:46:13;6.60;62.40
44851;DHT22;30583;48.714;9.386;2023-04-03T01:48:39;6.40;62.70
44851;DHT22;30583;48.714;9.386;2023-04-03T01:51:05;6.60;62.10
44851;DHT22;30583;48.714;9.386;2023-04-03T01:53:30;6.50;62.40
44851;DHT22;30583;48.714;9.386;2023-04-03T01:55:56;6.50;62.60
44851;DHT22;30583;48.714;9.386;2023-04-03T01:58:22;6.50;62.60
44851;DHT22;30583;48.714;9.386;2023-04-03T02:00:47;6.30;62.20
44851;DHT22;30583;48.714;9.386;2023-04-03T02:03:13;6.00;62.80
44851;DHT22;30583;48.714;9.386;2023-04-03T02:05:39;6.10;62.90
44851;DHT22;30583;48.714;9.386;2023-04-03T02:08:05;6.10;62.20
44851;DHT22;30583;48.714;9.386;2023-04-03T02:10:31;6.20;62.30
44851;DHT22;30583;48.714;9.386;2023-04-03T02:12:56;5.90;62.60
44851;DHT22;30583;48.714;9.386;2023-04-03T02:15:22;6.00;62.60
44851;DHT22;30583;48.714;9.386;2023-04-03T02:17:47;6.10;62.30
44851;DHT22;30583;48.714;9.386;2023-04-03T02:20:13;6.20;61.50
44851;DHT22;30583;48.714;9.386;2023-04-03T02:22:39;5.80;62.20
44851;DHT22;30583;48.714;9.386;2023-04-03T02:25:05;5.60;62.50
44851;DHT22;30583;48.714;9.386;2023-04-03T02:27:30;5.50;63.10
44851;DHT22;30583;48.714;9.386;2023-04-03T02:29:57;5.40;63.60
44851;DHT22;30583;48.714;9.386;2023-04-03T02:32:22;5.90;63.20
44851;DHT22;30583;48.714;9.386;2023-04-03T02:34:48;6.10;61.60
44851;DHT22;30583;48.714;9.386;2023-04-03T02:37:13;6.00;62.20
44851;DHT22;30583;48.714;9.386;2023-04-03T02:39:39;5.80;62.50
44851;DHT22;30583;48.714;9.386;2023-04-03T02:42:05;5.50;62.80
44851;DHT22;30583;48.714;9.386;2023-04-03T02:44:30;5.30;63.20
44851;DHT22;30583;48.714;9.386;2023-04-03T02:46:56;5.70;63.10
44851;DHT22;30583;48.714;9.386;2023-04-03T02:49:22;5.80;62.20
44851;DHT22;30583;48.714;9.386;2023-04-03T02:51:47;5.40;63.20
44851;DHT22;30583;48.714;9.386;2023-04-03T02:54:13;5.70;63.20
44851;DHT22;30583;48.714;9.386;2023-04-03T02:56:39;6.00;62.30
44851;DHT22;30583;48.714;9.386;2023-04-03T02:59:04;5.60;63.40
44851;DHT22;30583;48.714;9.386;2023-04-03T03:01:30;5.60;62.20
44851;DHT22;30583;48.714;9.386;2023-04-03T03:04:00;5.70;63.60
44851;DHT22;30583;48.714;9.386;2023-04-03T03:06:26;5.60;62.80
44851;DHT22;30583;48.714;9.386;2023-04-03T03:08:52;5.60;62.10
44851;DHT22;30583;48.714;9.386;2023-04-03T03:11:18;5.60;62.10
44851;DHT22;30583;48.714;9.386;2023-04-03T03:13:44;5.40;62.80
44851;DHT22;30583;48.714;9.386;2023-04-03T03:16:09;5.90;62.50
44851;DHT22;30583;48.714;9.386;2023-04-03T03:18:35;5.70;62.70
44851;DHT22;30583;48.714;9.386;2023-04-03T03:21:02;5.80;62.30
44851;DHT22;30583;48.714;9.386;2023-04-03T03:23:29;5.60;62.40
44851;DHT22;30583;48.714;9.386;2023-04-03T03:25:57;5.70;62.20
44851;DHT22;30583;48.714;9.386;2023-04-03T03:28:22;6.00;62.10
44851;DHT22;30583;48.714;9.386;2023-04-03T03:30:48;5.50;62.90
44851;DHT22;30583;48.714;9.386;2023-04-03T03:33:14;5.80;61.70
44851;DHT22;30583;48.714;9.386;2023-04-03T03:35:39;5.80;61.50
44851;DHT22;30583;48.714;9.386;2023-04-03T03:38:05;5.60;62.20
44851;DHT22;30583;48.714;9.386;2023-04-03T03:40:31;5.80;62.50
44851;DHT22;30583;48.714;9.386;2023-04-03T03:42:56;5.80;62.10
44851;DHT22;30583;48.714;9.386;2023-04-03T03:45:22;6.10;62.00
44851;DHT22;30583;48.714;9.386;2023-04-03T03:47:47;5.80;61.70
44851;DHT22;30583;48.714;9.386;2023-04-03T03:50:13;5.80;61.40
44851;DHT22;30583;48.714;9.386;2023-04-03T03:52:38;5.70;61.80
44851;DHT22;30583;48.714;9.386;2023-04-03T03:55:04;5.90;61.00
44851;DHT22;30583;48.714;9.386;2023-04-03T03:57:30;6.00;61.20
44851;DHT22;30583;48.714;9.386;2023-04-03T03:59:55;6.20;60.40
44851;DHT22;30583;48.714;9.386;2023-04-03T04:02:21;6.00;60.50
44851;DHT22;30583;48.714;9.386;2023-04-03T04:04:47;5.80;60.30
44851;DHT22;30583;48.714;9.386;2023-04-03T04:07:13;5.70;60.90
44851;DHT22;30583;48.714;9.386;2023-04-03T04:09:39;5.90;60.30
44851;DHT22;30583;48.714;9.386;2023-04-03T04:12:05;5.90;60.30
44851;DHT22;30583;48.714;9.386;2023-04-03T04:14:31;6.10;59.90
44851;DHT22;30583;48.714;9.386;2023-04-03T04:16:57;6.20;59.20
44851;DHT22;30583;48.714;9.386;2023-04-03T04:19:22;6.10;59.50
44851;DHT22;30583;48.714;9.386;2023-04-03T04:21:48;5.90;60.40
44851;DHT22;30583;48.714;9.386;2023-04-03T04:24:14;6.10;60.00
44851;DHT22;30583;48.714;9.386;2023-04-03T04:26:39;6.10;59.20
44851;DHT22;30583;48.714;9.386;2023-04-03T04:29:05;6.00;59.40
44851;DHT22;30583;48.714;9.386;2023-04-03T04:31:31;6.00;59.00
44851;DHT22;30583;48.714;9.386;2023-04-03T04:33:56;6.00;59.30
44851;DHT22;30583;48.714;9.386;2023-04-03T04:36:22;5.80;59.00
44851;DHT22;30583;48.714;9.386;2023-04-03T04:38:47;5.80;59.10
44851;DHT22;30583;48.714;9.386;2023-04-03T04:41:13;6.10;58.70
44851;DHT22;30583;48.714;9.386;2023-04-03T04:43:38;6.10;58.30
44851;DHT22;30583;48.714;9.386;2023-04-03T04:46:07;6.20;58.60
44851;DHT22;30583;48.714;9.386;2023-04-03T04:48:34;6.10;58.40
44851;DHT22;30583;48.714;9.386;2023-04-03T04:51:00;6.10;58.90
44851;DHT22;30583;48.714;9.386;2023-04-03T04:53:25;6.00;58.70
44851;DHT22;30583;48.714;9.386;2023-04-03T04:55:52;6.20;58.00
44851;DHT22;30583;48.714;9.386;2023-04-03T04:58:17;6.20;58.50
44851;DHT22;30583;48.714;9.386;2023-04-03T05:00:43;6.40;57.60
44851;DHT22;30583;48.714;9.386;2023-04-03T05:03:08;6.20;57.60
44851;DHT22;30583;48.714;9.386;2023-04-03T05:05:34;6.30;57.40
44851;DHT22;30583;48.714;9.386;2023-04-03T05:08:01;6.20;57.70
44851;DHT22;30583;48.714;9.386;2023-04-03T05:10:27;6.10;57.40
44851;DHT22;30583;48.714;9.386;2023-04-03T05:12:53;5.90;59.40
44851;DHT22;30583;48.714;9.386;2023-04-03T05:15:19;6.40;62.80
44851;DHT22;30583;48.714;9.386;2023-04-03T05:17:44;6.50;58.60
44851;DHT22;30583;48.714;9.386;2023-04-03T05:20:10;6.50;57.90
44851;DHT22;30583;48.714;9.386;2023-04-03T05:22:36;6.70;58.10
44851;DHT22;30583;48.714;9.386;2023-04-03T05:25:02;6.20;57.90
44851;DHT22;30583;48.714;9.386;2023-04-03T05:27:27;6.40;57.50
44851;DHT22;30583;48.714;9.386;2023-04-03T05:29:54;6.50;57.40
44851;DHT22;30583;48.714;9.386;2023-04-03T05:32:20;6.50;56.80
44851;DHT22;30583;48.714;9.386;2023-04-03T05:34:46;6.20;58.20
44851;DHT22;30583;48.714;9.386;2023-04-03T05:37:11;6.40;58.00
44851;DHT22;30583;48.714;9.386;2023-04-03T05:39:38;6.40;57.70
44851;DHT22;30583;48.714;9.386;2023-04-03T05:42:06;6.20;57.20
44851;DHT22;30583;48.714;9.386;2023-04-03T05:44:32;5.60;58.40
44851;DHT22;30583;48.714;9.386;2023-04-03T05:46:57;5.90;57.80
44851;DHT22;30583;48.714;9.386;2023-04-03T05:49:23;5.90;58.30
44851;DHT22;30583;48.714;9.386;2023-04-03T05:51:48;5.80;57.90
44851;DHT22;30583;48.714;9.386;2023-04-03T05:54:28;6.10;57.60
44851;DHT22;30583;48.714;9.386;2023-04-03T05:56:54;6.10;58.00
44851;DHT22;30583;48.714;9.386;2023-04-03T05:59:20;6.10;58.00
44851;DHT22;30583;48.714;9.386;2023-04-03T06:01:47;5.90;58.20
44851;DHT22;30583;48.714;9.386;2023-04-03T06:04:13;6.10;58.30
44851;DHT22;30583;48.714;9.386;2023-04-03T06:06:54;5.90;58.40
44851;DHT22;30583;48.714;9.386;2023-04-03T06:09:22;5.90;58.40
44851;DHT22;30583;48.714;9.386;2023-04-03T06:11:49;5.90;58.20
44851;DHT22;30583;48.714;9.386;2023-04-03T06:14:15;5.70;59.10
44851;DHT22;30583;48.714;9.386;2023-04-03T06:16:41;5.80;58.80
44851;DHT22;30583;48.714;9.386;2023-04-03T06:19:08;6.00;58.00
44851;DHT22;30583;48.714;9.386;2023-04-03T06:21:34;6.10;58.00
44851;DHT22;30583;48.714;9.386;2023-04-03T06:24:01;6.20;57.30
44851;DHT22;30583;48.714;9.386;2023-04-03T06:26:27;6.10;58.30
44851;DHT22;30583;48.714;9.386;2023-04-03T06:28:53;6.20;57.70
44851;DHT22;30583;48.714;9.386;2023-04-03T06:31:19;6.10;58.90
44851;DHT22;30583;48.714;9.386;2023-04-03T06:33:45;6.10;59.10
44851;DHT22;30583;48.714;9.386;2023-04-03T06:36:11;5.80;58.70
44851;DHT22;30583;48.714;9.386;2023-04-03T06:38:37;5.60;59.80
44851;DHT22;30583;48.714;9.386;2023-04-03T06:41:03;5.80;59.60
44851;DHT22;30583;48.714;9.386;2023-04-03T06:43:29;6.00;58.50
44851;DHT22;30583;48.714;9.386;2023-04-03T06:45:56;5.90;59.40
44851;DHT22;30583;48.714;9.386;2023-04-03T06:48:22;6.00;58.70
44851;DHT22;30583;48.714;9.386;2023-04-03T06:50:48;5.70;59.40
44851;DHT22;30583;48.714;9.386;2023-04-03T06:53:14;6.10;58.60
44851;DHT22;30583;48.714;9.386;2023-04-03T06:55:40;6.40;58.50
44851;DHT22;30583;48.714;9.386;2023-04-03T06:58:06;6.30;58.90
44851;DHT22;30583;48.714;9.386;2023-04-03T07:00:32;6.20;58.80
44851;DHT22;30583;48.714;9.386;2023-04-03T07:02:58;6.20;58.90
44851;DHT22;30583;48.714;9.386;2023-04-03T07:05:24;6.60;58.10
44851;DHT22;30583;48.714;9.386;2023-04-03T07:07:50;6.20;58.40
44851;DHT22;30583;48.714;9.386;2023-04-03T07:10:17;6.20;58.90
44851;DHT22;30583;48.714;9.386;2023-04-03T07:12:42;5.90;59.80
44851;DHT22;30583;48.714;9.386;2023-04-03T07:15:08;6.40;60.20
44851;DHT22;30583;48.714;9.386;2023-04-03T07:17:34;6.30;59.40
44851;DHT22;30583;48.714;9.386;2023-04-03T07:20:01;6.70;58.50
44851;DHT22;30583;48.714;9.386;2023-04-03T07:22:28;6.60;58.80
44851;DHT22;30583;48.714;9.386;2023-04-03T07:24:53;6.60;58.70
44851;DHT22;30583;48.714;9.386;2023-04-03T07:27:19;6.40;58.60
44851;DHT22;30583;48.714;9.386;2023-04-03T07:29:44;6.40;58.60
44851;DHT22;30583;48.714;9.386;2023-04-03T07:32:10;6.70;58.60
44851;DHT22;30583;48.714;9.386;2023-04-03T07:34:37;6.90;59.10
44851;DHT22;30583;48.714;9.386;2023-04-03T07:37:02;6.70;57.80
44851;DHT22;30583;48.714;9.386;2023-04-03T07:39:29;6.70;58.50
44851;DHT22;30583;48.714;9.386;2023-04-03T07:41:54;6.20;59.30
44851;DHT22;30583;48.714;9.386;2023-04-03T07:44:23;6.10;60.20
44851;DHT22;30583;48.714;9.386;2023-04-03T07:46:48;6.00;60.40
44851;DHT22;30583;48.714;9.386;2023-04-03T07:49:16;6.20;60.80
44851;DHT22;30583;48.714;9.386;2023-04-03T07:51:43;6.30;60.10
44851;DHT22;30583;48.714;9.386;2023-04-03T07:54:09;6.40;60.30
44851;DHT22;30583;48.714;9.386;2023-04-03T07:56:35;6.50;59.60
44851;DHT22;30583;48.714;9.386;2023-04-03T07:59:01;6.30;59.70
44851;DHT22;30583;48.714;9.386;2023-04-03T08:01:26;6.60;59.20
44851;DHT22;30583;48.714;9.386;2023-04-03T08:03:52;6.60;58.60
44851;DHT22;30583;48.714;9.386;2023-04-03T08:06:18;6.30;58.60
44851;DHT22;30583;48.714;9.386;2023-04-03T08:08:44;6.60;58.70
44851;DHT22;30583;48.714;9.386;2023-04-03T08:11:10;6.70;58.50
44851;DHT22;30583;48.714;9.386;2023-04-03T08:13:36;7.00;58.50
44851;DHT22;30583;48.714;9.386;2023-04-03T08:16:18;6.60;58.80
44851;DHT22;30583;48.714;9.386;2023-04-03T08:18:45;6.50;59.20
44851;DHT22;30583;48.714;9.386;2023-04-03T08:21:12;6.30;59.40
44851;DHT22;30583;48.714;9.386;2023-04-03T08:23:38;6.70;59.20
44851;DHT22;30583;48.714;9.386;2023-04-03T08:26:16;7.10;58.50
44851;DHT22;30583;48.714;9.386;2023-04-03T08:28:42;7.30;58.20
44851;DHT22;30583;48.714;9.386;2023-04-03T08:31:11;7.20;57.30
44851;DHT22;30583;48.714;9.386;2023-04-03T08:33:38;7.20;57.70
44851;DHT22;30583;48.714;9.386;2023-04-03T08:36:07;7.70;56.90
44851;DHT22;30583;48.714;9.386;2023-04-03T08:38:33;7.40;58.00
44851;DHT22;30583;48.714;9.386;2023-04-03T08:43:55;7.70;56.70
44851;DHT22;30583;48.714;9.386;2023-04-03T08:46:26;7.50;56.20
44851;DHT22;30583;48.714;9.386;2023-04-03T08:48:58;7.40;57.40
44851;DHT22;30583;48.714;9.386;2023-04-03T08:51:26;7.50;57.20
44851;DHT22;30583;48.714;9.386;2023-04-03T08:53:58;7.20;56.50
44851;DHT22;30583;48.714;9.386;2023-04-03T08:56:26;6.90;55.00
44851;DHT22;30583;48.714;9.386;2023-04-03T08:58:57;7.50;54.70
44851;DHT22;30583;48.714;9.386;2023-04-03T09:01:27;7.40;54.90
44851;DHT22;30583;48.714;9.386;2023-04-03T09:03:54;7.50;55.10
44851;DHT22;30583;48.714;9.386;2023-04-03T09:06:22;7.10;56.00
44851;DHT22;30583;48.714;9.386;2023-04-03T09:14:39;7.70;55.10
44851;DHT22;30583;48.714;9.386;2023-04-03T09:19:56;7.80;59.60
44851;DHT22;30583;48.714;9.386;2023-04-03T09:22:25;7.90;54.80
44851;DHT22;30583;48.714;9.386;2023-04-03T09:25:17;7.50;54.40
44851;DHT22;30583;48.714;9.386;2023-04-03T09:27:44;7.50;54.90
44851;DHT22;30583;48.714;9.386;2023-04-03T09:30:18;7.80;54.80
44851;DHT22;30583;48.714;9.386;2023-04-03T09:32:44;7.90;53.00
44851;DHT22;30583;48.714;9.386;2023-04-03T09:37:40;7.50;52.00
44851;DHT22;30583;48.714;9.386;2023-04-03T09:42:57;8.00;51.60
44851;DHT22;30583;48.714;9.386;2023-04-03T09:45:30;7.70;50.60
44851;DHT22;30583;48.714;9.386;2023-04-03T09:50:41;8.20;52.20
44851;DHT22;30583;48.714;9.386;2023-04-03T09:53:38;8.50;50.90
44851;DHT22;30583;48.714;9.386;2023-04-03T10:01:30;8.30;48.90
44851;DHT22;30583;48.714;9.386;2023-04-03T10:04:16;8.60;49.00
44851;DHT22;30583;48.714;9.386;2023-04-03T10:06:47;8.10;48.40
44851;DHT22;30583;48.714;9.386;2023-04-03T10:14:25;8.30;50.10
44851;DHT22;30583;48.714;9.386;2023-04-03T10:17:18;8.30;49.90
44851;DHT22;30583;48.714;9.386;2023-04-03T10:22:32;8.40;49.50
44851;DHT22;30583;48.714;9.386;2023-04-03T10:25:17;8.70;49.00
44851;DHT22;30583;48.714;9.386;2023-04-03T10:28:01;8.30;49.40
44851;DHT22;30583;48.714;9.386;2023-04-03T10:34:04;7.70;52.10
44851;DHT22;30583;48.714;9.386;2023-04-03T10:39:32;7.90;52.70
44851;DHT22;30583;48.714;9.386;2023-04-03T10:47:21;7.60;55.20
44851;DHT22;30583;48.714;9.386;2023-04-03T10:55:35;8.00;54.60
44851;DHT22;30583;48.714;9.386;2023-04-03T10:58:03;8.00;54.10
44851;DHT22;30583;48.714;9.386;2023-04-03T11:00:36;8.10;55.10
44851;DHT22;30583;48.714;9.386;2023-04-03T11:05:48;7.70;51.80
44851;DHT22;30583;48.714;9.386;2023-04-03T11:10:55;8.50;62.00
44851;DHT22;30583;48.714;9.386;2023-04-03T11:13:33;10.90;51.10
44851;DHT22;30583;48.714;9.386;2023-04-03T11:16:00;11.70;49.90
44851;DHT22;30583;48.714;9.386;2023-04-03T11:18:39;11.80;44.30
44851;DHT22;30583;48.714;9.386;2023-04-03T11:23:44;8.20;47.80
44851;DHT22;30583;48.714;9.386;2023-04-03T11:26:19;8.20;48.40
44851;DHT22;30583;48.714;9.386;2023-04-03T11:28:46;7.90;48.80
44851;DHT22;30583;48.714;9.386;2023-04-03T11:34:23;8.20;48.40
44851;DHT22;30583;48.714;9.386;2023-04-03T11:36:56;7.80;48.30
44851;DHT22;30583;48.714;9.386;2023-04-03T11:39:33;8.10;48.40
44851;DHT22;30583;48.714;9.386;2023-04-03T11:42:17;8.10;48.00
44851;DHT22;30583;48.714;9.386;2023-04-03T11:44:49;7.90;47.70
44851;DHT22;30583;48.714;9.386;2023-04-03T11:47:45;8.10;47.00
44851;DHT22;30583;48.714;9.386;2023-04-03T11:53:35;7.80;48.20
44851;DHT22;30583;48.714;9.386;2023-04-03T12:01:47;8.20;47.40
44851;DHT22;30583;48.714;9.386;2023-04-03T12:04:14;7.60;47.50
44851;DHT22;30583;48.714;9.386;2023-04-03T12:06:47;8.20;48.00
44851;DHT22;30583;48.714;9.386;2023-04-03T12:09:24;8.20;47.30
44851;DHT22;30583;48.714;9.386;2023-04-03T12:11:50;8.50;47.90
44851;DHT22;30583;48.714;9.386;2023-04-03T12:14:16;8.50;46.30
44851;DHT22;30583;48.714;9.386;2023-04-03T12:16:43;8.90;46.70
44851;DHT22;30583;48.714;9.386;2023-04-03T12:19:30;8.90;46.40
44851;DHT22;30583;48.714;9.386;2023-04-03T12:24:30;8.40;46.00
44851;DHT22;30583;48.714;9.386;2023-04-03T12:32:21;8.00;45.80
44851;DHT22;30583;48.714;9.386;2023-04-03T12:34:57;8.50;45.80
44851;DHT22;30583;48.714;9.386;2023-04-03T12:43:25;8.30;44.50
44851;DHT22;30583;48.714;9.386;2023-04-03T12:46:09;8.50;45.00
44851;DHT22;30583;48.714;9.386;2023-04-03T12:48:53;8.60;44.50
44851;DHT22;30583;48.714;9.386;2023-04-03T12:51:35;8.50;46.00
44851;DHT22;30583;48.714;9.386;2023-04-03T12:54:12;8.90;45.40
44851;DHT22;30583;48.714;9.386;2023-04-03T12:56:38;9.10;45.60
44851;DHT22;30583;48.714;9.386;2023-04-03T12:59:24;9.50;45.10
44851;DHT22;30583;48.714;9.386;2023-04-03T13:01:56;9.20;45.10
44851;DHT22;30583;48.714;9.386;2023-04-03T13:04:22;9.20;44.90
44851;DHT22;30583;48.714;9.386;2023-04-03T13:06:48;9.30;44.80
44851;DHT22;30583;48.714;9.386;2023-04-03T13:09:23;8.80;45.40
44851;DHT22;30583;48.714;9.386;2023-04-03T13:11:55;8.40;45.20
44851;DHT22;30583;48.714;9.386;2023-04-03T13:14:24;8.50;44.00
44851;DHT22;30583;48.714;9.386;2023-04-03T13:16:59;8.50;44.20
44851;DHT22;30583;48.714;9.386;2023-04-03T13:19:26;8.40;43.60
44851;DHT22;30583;48.714;9.386;2023-04-03T13:22:04;8.80;44.30
44851;DHT22;30583;48.714;9.386;2023-04-03T13:24:34;8.60;41.90
44851;DHT22;30583;48.714;9.386;2023-04-03T13:27:02;8.50;43.50
44851;DHT22;30583;48.714;9.386;2023-04-03T13:29:33;8.30;44.90
44851;DHT22;30583;48.714;9.386;2023-04-03T13:31:59;8.20;44.90
44851;DHT22;30583;48.714;9.386;2023-04-03T13:34:28;8.80;44.70
44851;DHT22;30583;48.714;9.386;2023-04-03T13:36:57;8.50;44.20
44851;DHT22;30583;48.714;9.386;2023-04-03T13:39:29;8.70;44.40
44851;DHT22;30583;48.714;9.386;2023-04-03T13:42:24;8.60;43.80
44851;DHT22;30583;48.714;9.386;2023-04-03T13:45:08;8.20;43.60
44851;DHT22;30583;48.714;9.386;2023-04-03T13:47:42;8.30;44.30
44851;DHT22;30583;48.714;9.386;2023-04-03T13:52:48;9.70;41.70
44851;DHT22;30583;48.714;9.386;2023-04-03T13:55:25;9.90;41.50
44851;DHT22;30583;48.714;9.386;2023-04-03T14:00:26;9.30;42.20
44851;DHT22;30583;48.714;9.386;2023-04-03T14:02:55;9.10;43.50
44851;DHT22;30583;48.714;9.386;2023-04-03T14:05:22;8.70;42.20
44851;DHT22;30583;48.714;9.386;2023-04-03T14:07:50;8.40;41.70
44851;DHT22;30583;48.714;9.386;2023-04-03T14:10:16;8.60;42.30
44851;DHT22;30583;48.714;9.386;2023-04-03T14:12:42;8.40;42.30
44851;DHT22;30583;48.714;9.386;2023-04-03T14:15:18;8.90;43.00
44851;DHT22;30583;48.714;9.386;2023-04-03T14:17:43;9.00;43.10
44851;DHT22;30583;48.714;9.386;2023-04-03T14:20:22;9.20;41.70
44851;DHT22;30583;48.714;9.386;2023-04-03T14:22:48;9.20;41.50
44851;DHT22;30583;48.714;9.386;2023-04-03T14:25:14;9.70;42.10
44851;DHT22;30583;48.714;9.386;2023-04-03T14:27:43;9.60;39.90
44851;DHT22;30583;48.714;9.386;2023-04-03T14:30:16;10.50;40.20
44851;DHT22;30583;48.714;9.386;2023-04-03T14:32:42;11.50;38.50
44851;DHT22;30583;48.714;9.386;2023-04-03T14:35:08;11.30;38.20
44851;DHT22;30583;48.714;9.386;2023-04-03T14:37:33;9.90;39.80
44851;DHT22;30583;48.714;9.386;2023-04-03T14:40:01;9.30;40.70
44851;DHT22;30583;48.714;9.386;2023-04-03T14:42:32;9.10;40.80
44851;DHT22;30583;48.714;9.386;2023-04-03T14:44:59;9.20;41.50
44851;DHT22;30583;48.714;9.386;2023-04-03T14:47:27;9.40;42.60
44851;DHT22;30583;48.714;9.386;2023-04-03T14:49:54;9.30;42.70
44851;DHT22;30583;48.714;9.386;2023-04-03T14:52:26;8.70;42.20
44851;DHT22;30583;48.714;9.386;2023-04-03T14:54:52;8.80;42.60
44851;DHT22;30583;48.714;9.386;2023-04-03T14:57:18;8.90;42.80
44851;DHT22;30583;48.714;9.386;2023-04-03T14:59:45;8.70;44.60
44851;DHT22;30583;48.714;9.386;2023-04-03T15:04:59;9.10;43.30
44851;DHT22;30583;48.714;9.386;2023-04-03T15:07:27;8.70;42.90
44851;DHT22;30583;48.714;9.386;2023-04-03T15:09:54;8.40;42.30
44851;DHT22;30583;48.714;9.386;2023-04-03T15:12:22;8.30;42.40
44851;DHT22;30583;48.714;9.386;2023-04-03T15:14:48;8.50;41.80
44851;DHT22;30583;48.714;9.386;2023-04-03T15:17:19;8.80;42.80
44851;DHT22;30583;48.714;9.386;2023-04-03T15:19:46;8.40;42.40
44851;DHT22;30583;48.714;9.386;2023-04-03T15:22:16;8.20;41.90
44851;DHT22;30583;48.714;9.386;2023-04-03T15:24:43;8.40;42.20
44851;DHT22;30583;48.714;9.386;2023-04-03T15:27:09;8.70;42.00
44851;DHT22;30583;48.714;9.386;2023-04-03T15:29:36;9.40;42.50
44851;DHT22;30583;48.714;9.386;2023-04-03T15:32:02;10.80;42.00
44851;DHT22;30583;48.714;9.386;2023-04-03T15:34:28;11.40;40.90
44851;DHT22;30583;48.714;9.386;2023-04-03T15:36:54;10.60;39.00
44851;DHT22;30583;48.714;9.386;2023-04-03T15:39:20;10.70;39.50
44851;DHT22;30583;48.714;9.386;2023-04-03T15:41:46;10.80;40.50
44851;DHT22;30583;48.714;9.386;2023-04-03T15:44:12;10.00;41.10
44851;DHT22;30583;48.714;9.386;2023-04-03T15:46:38;9.40;40.50
44851;DHT22;30583;48.714;9.386;2023-04-03T15:49:05;9.20;42.60
44851;DHT22;30583;48.714;9.386;2023-04-03T15:51:31;8.40;42.10
44851;DHT22;30583;48.714;9.386;2023-04-03T15:53:57;9.70;47.50
44851;DHT22;30583;48.714;9.386;2023-04-03T15:56:22;10.90;44.80
44851;DHT22;30583;48.714;9.386;2023-04-03T15:58:48;12.60;48.60
44851;DHT22;30583;48.714;9.386;2023-04-03T16:01:14;12.60;39.80
44851;DHT22;30583;48.714;9.386;2023-04-03T16:03:40;11.70;46.00
44851;DHT22;30583;48.714;9.386;2023-04-03T16:06:11;12.90;43.00
44851;DHT22;30583;48.714;9.386;2023-04-03T16:08:37;13.60;46.30
44851;DHT22;30583;48.714;9.386;2023-04-03T16:11:03;14.70;35.80
44851;DHT22;30583;48.714;9.386;2023-04-03T16:13:29;14.10;40.70
44851;DHT22;30583;48.714;9.386;2023-04-03T16:15:55;13.70;37.30
44851;DHT22;30583;48.714;9.386;2023-04-03T16:18:20;12.10;37.30
44851;DHT22;30583;48.714;9.386;2023-04-03T16:20:46;13.50;44.40
44851;DHT22;30583;48.714;9.386;2023-04-03T16:23:12;14.60;41.60
44851;DHT22;30583;48.714;9.386;2023-04-03T16:25:38;13.30;44.20
44851;DHT22;30583;48.714;9.386;2023-04-03T16:28:04;13.70;35.90
44851;DHT22;30583;48.714;9.386;2023-04-03T16:30:29;12.70;39.20
44851;DHT22;30583;48.714;9.386;2023-04-03T16:32:56;13.70;39.00
44851;DHT22;30583;48.714;9.386;2023-04-03T16:35:22;13.80;39.60
44851;DHT22;30583;48.714;9.386;2023-04-03T16:37:48;12.20;34.60
44851;DHT22;30583;48.714;9.386;2023-04-03T16:40:13;10.70;41.20
44851;DHT22;30583;48.714;9.386;2023-04-03T16:42:39;11.00;43.00
44851;DHT22;30583;48.714;9.386;2023-04-03T16:45:06;10.50;42.60
44851;DHT22;30583;48.714;9.386;2023-04-03T16:47:32;10.10;40.10
44851;DHT22;30583;48.714;9.386;2023-04-03T16:49:57;10.10;39.40
44851;DHT22;30583;48.714;9.386;2023-04-03T16:52:23;9.50;38.50
44851;DHT22;30583;48.714;9.386;2023-04-03T16:54:49;9.20;39.40
44851;DHT22;30583;48.714;9.386;2023-04-03T16:57:14;8.80;39.60
44851;DHT22;30583;48.714;9.386;2023-04-03T16:59:40;8.60;40.60
44851;DHT22;30583;48.714;9.386;2023-04-03T17:02:06;8.40;40.20
44851;DHT22;30583;48.714;9.386;2023-04-03T17:04:32;8.50;40.00
44851;DHT22;30583;48.714;9.386;2023-04-03T17:06:57;8.40;40.00
44851;DHT22;30583;48.714;9.386;2023-04-03T17:09:27;7.90;40.70
44851;DHT22;30583;48.714;9.386;2023-04-03T17:11:53;8.10;41.10
44851;DHT22;30583;48.714;9.386;2023-04-03T17:14:19;8.20;40.90
44851;DHT22;30583;48.714;9.386;2023-04-03T17:16:44;8.60;41.10
44851;DHT22;30583;48.714;9.386;2023-04-03T17:19:10;8.70;40.80
44851;DHT22;30583;48.714;9.386;2023-04-03T17:21:37;8.70;40.70
44851;DHT22;30583;48.714;9.386;2023-04-03T17:24:05;8.60;42.00
44851;DHT22;30583;48.714;9.386;2023-04-03T17:26:34;8.20;42.70
44851;DHT22;30583;48.714;9.386;2023-04-03T17:29:02;8.50;43.70
44851;DHT22;30583;48.714;9.386;2023-04-03T17:31:27;8.20;41.90
44851;DHT22;30583;48.714;9.386;2023-04-03T17:33:53;8.20;41.30
44851;DHT22;30583;48.714;9.386;2023-04-03T17:36:18;8.30;41.90
44851;DHT22;30583;48.714;9.386;2023-04-03T17:38:44;8.70;41.20